メインページ
METAR-TAF:

METAR-TAF

空港 :

フォス・ド・イグアス国際空港

フォス・ド・イグアス, パラナ州, ブラジル

緯度: 25-31S, 経度: 054-35W, 海抜: 180m

現時点の気象観測

当レポートは25分前の06:00(UTC)に作成
南/南東の風 7kt
気温 19°C
湿度 100%
気圧 1013 hPa
視程10km以上
1,500メートル以下は雲なし、積乱雲なし

METAR: SBFI 200600Z 15007KT CAVOK 19/19 Q1013

時間: 03:25 (06:25 UTC)

予報

当レポートは3時間25分前の03:00(UTC)に作成
予報は20日の 06時(UTC)から 21日の 06時(UTC)まで有効
南/南東の風 5kt
視程10km以上
1,500メートル以下は雲なし、積乱雲なし
確率 30%
20日の 07時(UTC)から 20日の 09時(UTC)まで
視程: 2000m
20日の 10時(UTC)から 20日の 12時(UTC)まで徐々に
の風 7kt
視程10km以上
高度2000ftの雲は散在している
間 20から14 UTC徐々に
視程10km以上
1,500メートル以下は雲なし、積乱雲なし

TAF: SBFI 200300Z 2006/2106 16005KT CAVOK TN19/2009Z TX26/2018Z PROB30 2007/2009 2000 BR NSC BECMG 2010/2012 10007KT 9999 SCT020 BECMG 2014 /2016 CAVOK RMK PDJ

4,000以上の空港の気象観測と天気予報(METAR報とTAF報)

利用可能な観測所は地図上に黄色い丸と赤い丸で示す。

丸の上にカーソルを重ねると観測所名を参照できる。

次にクリックすると気象観測と天気予報を参照できる。

マップの切り替え:黒色「×」印の緑ボタンをクリックして拡大、「-」印の緑ボタンをクリックして縮小、緑色の三角印をクリックして隣りの地図に切り替え


METAR-TAF: